Time;durP1;ratioP1;P1;durP2;ratioP2;P2;SDS_P1;SDS_P2;PMS_P1;PMS_P2;Temp;Humidity;BMP_temperature;BMP_pressure;BME280_temperature;BME280_humidity;BME280_pressure;Samples;Min_cycle;Max_cycle;Signal;HPM_P1;HPM_P2
2022/09/08 03:40:11;;;;;;;12.30;10.57;;;17.00;99.90;;;;;;4108149;29;21517;-91
2022/09/08 03:42:40;;;;;;;11.93;10.25;;;17.00;99.90;;;;;;4919207;29;20651;-88
2022/09/08 03:45:12;;;;;;;12.75;11.18;;;17.00;99.90;;;;;;4919217;29;20178;-88
2022/09/08 03:47:39;;;;;;;15.95;11.48;;;17.00;99.90;;;;;;4918764;29;20181;-89
2022/09/08 03:50:06;;;;;;;15.30;11.07;;;16.90;99.90;;;;;;4918693;29;20210;-91
2022/09/08 03:52:32;;;;;;;12.90;11.25;;;16.90;99.90;;;;;;4920192;29;20218;-92
2022/09/08 03:54:58;;;;;;;13.13;10.85;;;16.90;99.90;;;;;;4918638;29;20629;-91
2022/09/08 03:57:26;;;;;;;13.75;11.98;;;16.90;99.90;;;;;;4931825;29;20185;-91
2022/09/08 03:59:54;;;;;;;12.52;11.13;;;16.80;99.90;;;;;;4937476;29;20294;-89
2022/09/08 04:02:21;;;;;;;13.02;11.68;;;16.70;99.90;;;;;;4937403;29;20539;-91
2022/09/08 04:04:49;;;;;;;14.20;10.95;;;16.70;99.90;;;;;;4937192;29;20181;-91
2022/09/08 04:07:15;;;;;;;13.30;10.93;;;16.60;99.90;;;;;;4937279;29;20186;-90
2022/09/08 04:09:42;;;;;;;12.50;11.23;;;16.60;99.90;;;;;;4933846;29;20202;-89
2022/09/08 04:12:08;;;;;;;14.98;11.02;;;16.70;99.90;;;;;;4917853;29;20206;-94
2022/09/08 04:14:34;;;;;;;14.70;10.85;;;16.70;99.90;;;;;;4918388;29;20162;-89
2022/09/08 04:17:00;;;;;;;12.40;10.68;;;16.70;99.90;;;;;;4920872;29;20167;-92
2022/09/08 04:19:27;;;;;;;12.70;11.40;;;16.70;99.90;;;;;;4936884;29;20158;-90
2022/09/08 04:21:53;;;;;;;13.82;11.18;;;16.70;99.90;;;;;;4937463;29;20606;-93
2022/09/08 04:24:19;;;;;;;12.30;10.80;;;16.60;99.90;;;;;;4937016;29;20240;-93
2022/09/08 04:26:46;;;;;;;13.27;10.82;;;16.60;99.90;;;;;;4937419;29;20266;-92
2022/09/08 04:29:12;;;;;;;12.88;11.50;;;16.60;99.90;;;;;;4937522;29;20229;-92
2022/09/08 04:31:38;;;;;;;12.73;11.20;;;16.60;99.90;;;;;;4938123;29;20697;-89
2022/09/08 04:34:04;;;;;;;15.25;11.48;;;16.70;99.90;;;;;;4939215;29;20170;-91
2022/09/08 04:36:31;;;;;;;17.10;12.27;;;16.70;99.90;;;;;;4938148;29;20186;-93
2022/09/08 04:38:59;;;;;;;13.23;10.75;;;16.70;99.90;;;;;;4937029;29;20166;-90
2022/09/08 04:41:27;;;;;;;16.17;11.95;;;16.60;99.90;;;;;;4936450;29;20244;-91
2022/09/08 04:43:54;;;;;;;13.82;11.32;;;16.60;99.90;;;;;;4936477;29;20694;-91
2022/09/08 04:46:21;;;;;;;14.20;11.40;;;16.60;99.90;;;;;;4936610;29;20196;-89
2022/09/08 04:48:47;;;;;;;15.45;12.18;;;16.60;99.90;;;;;;4919998;29;20205;-94
2022/09/08 04:51:16;;;;;;;18.15;12.38;;;16.50;99.90;;;;;;4917660;29;20202;-87
2022/09/08 04:53:43;;;;;;;13.90;12.40;;;16.60;99.90;;;;;;4917587;29;20303;-93
2022/09/08 04:56:10;;;;;;;14.05;11.45;;;16.60;99.90;;;;;;4917899;29;20178;-90
2022/09/08 04:58:39;;;;;;;16.00;11.50;;;16.50;99.90;;;;;;4917952;29;20635;-88
2022/09/08 05:01:06;;;;;;;12.68;11.38;;;16.60;99.90;;;;;;4917471;29;20375;-89
2022/09/08 05:03:33;;;;;;;12.32;11.07;;;16.60;99.90;;;;;;4918348;29;20545;-89
2022/09/08 05:06:06;;;;;;;15.32;10.75;;;16.50;99.90;;;;;;4917791;29;20171;-92
2022/09/08 05:08:32;;;;;;;12.68;11.38;;;16.50;99.90;;;;;;4917728;29;20181;-89
2022/09/08 05:11:00;;;;;;;12.05;10.75;;;16.50;99.90;;;;;;4917235;29;20223;-90
2022/09/08 05:13:25;;;;;;;14.48;10.65;;;16.60;99.90;;;;;;4919518;29;20206;-89
2022/09/08 05:15:51;;;;;;;12.57;11.02;;;16.50;99.90;;;;;;4917206;29;20227;-93
2022/09/08 05:18:17;;;;;;;13.15;10.93;;;16.60;99.90;;;;;;4918009;29;20206;-93
2022/09/08 05:20:53;;;;;;;13.43;10.88;;;16.50;99.90;;;;;;4917550;29;20281;-91
2022/09/08 05:23:19;;;;;;;12.73;9.82;;;16.50;99.90;;;;;;4917105;29;20170;-90
2022/09/08 05:25:45;;;;;;;14.18;11.38;;;16.50;99.90;;;;;;4917923;29;20178;-91
2022/09/08 05:28:11;;;;;;;11.73;10.48;;;16.60;99.90;;;;;;4919996;29;20230;-89
2022/09/08 05:30:40;;;;;;;12.82;10.63;;;16.60;99.90;;;;;;4922150;29;20321;-90
2022/09/08 05:33:05;;;;;;;14.52;10.60;;;16.60;99.90;;;;;;4921780;29;20217;-88
2022/09/08 05:35:35;;;;;;;13.27;10.95;;;16.60;99.90;;;;;;4921690;29;20187;-88
2022/09/08 05:38:01;;;;;;;11.77;10.57;;;16.60;99.90;;;;;;4921160;29;20167;-89
2022/09/08 05:40:36;;;;;;;13.02;10.90;;;16.60;99.90;;;;;;4921157;29;20647;-90
2022/09/08 05:43:03;;;;;;;12.00;10.65;;;16.60;99.90;;;;;;4921703;29;20193;-89
2022/09/08 05:45:30;;;;;;;10.82;9.68;;;16.60;99.90;;;;;;4920519;29;20178;-91
2022/09/08 05:47:56;;;;;;;11.55;10.15;;;16.70;99.90;;;;;;4929604;29;20197;-90
2022/09/08 05:50:22;;;;;;;11.73;10.48;;;16.60;99.90;;;;;;4937698;29;20345;-93
2022/09/08 05:52:54;;;;;;;10.93;9.82;;;16.60;99.90;;;;;;4939335;28;20206;-91
2022/09/08 05:55:20;;;;;;;14.65;10.68;;;16.60;99.90;;;;;;4924228;29;20181;-90
2022/09/08 05:57:47;;;;;;;11.43;10.23;;;16.70;99.90;;;;;;4909139;28;20191;-89
2022/09/08 06:00:13;;;;;;;12.77;11.30;;;16.70;99.90;;;;;;4918486;29;20225;-91
2022/09/08 06:02:38;;;;;;;11.63;10.48;;;16.70;99.90;;;;;;4920431;29;20624;-91
2022/09/08 06:05:08;;;;;;;11.43;10.02;;;16.70;99.90;;;;;;4919978;29;20238;-90
2022/09/08 06:07:33;;;;;;;12.75;10.55;;;16.60;99.90;;;;;;4920370;29;20242;-90
2022/09/08 06:10:00;;;;;;;15.90;11.05;;;16.60;99.90;;;;;;4918407;29;20202;-89
2022/09/08 06:12:25;;;;;;;13.35;10.18;;;16.70;99.90;;;;;;4919517;29;20237;-89
2022/09/08 06:14:51;;;;;;;13.93;10.40;;;16.60;99.90;;;;;;4920716;29;20182;-89
2022/09/08 06:17:17;;;;;;;14.15;10.60;;;16.70;99.90;;;;;;4927912;29;20197;-91
2022/09/08 06:19:43;;;;;;;13.75;10.27;;;16.70;99.90;;;;;;4938542;29;20174;-92
2022/09/08 06:22:09;;;;;;;20.02;10.85;;;16.70;99.90;;;;;;4932840;29;20186;-92
2022/09/08 06:24:34;;;;;;;13.30;11.00;;;16.70;99.90;;;;;;4918979;29;20936;-88
2022/09/08 06:27:38;;;;;;;12.30;10.45;;;16.70;99.90;;;;;;4921113;29;20202;-89
2022/09/08 06:30:11;;;;;;;15.93;11.25;;;16.70;99.90;;;;;;4919835;29;20674;-90
2022/09/08 06:33:07;;;;;;;13.02;11.75;;;16.60;99.90;;;;;;4920870;29;20210;-90
2022/09/08 06:36:03;;;;;;;14.02;10.90;;;16.70;99.90;;;;;;4919395;29;20217;-90
2022/09/08 06:38:41;;;;;;;14.55;10.13;;;16.70;99.90;;;;;;4914838;29;20193;-89
2022/09/08 06:41:18;;;;;;;12.60;10.40;;;16.70;99.90;;;;;;4921050;29;20234;-90
2022/09/08 06:43:56;;;;;;;12.27;10.88;;;16.80;99.90;;;;;;4921559;29;20205;-91
2022/09/08 06:46:27;;;;;;;13.18;10.43;;;16.80;99.90;;;;;;4920602;29;20249;-89
2022/09/08 06:48:54;;;;;;;13.98;10.27;;;16.90;99.90;;;;;;4919858;29;20688;-89
2022/09/08 06:51:42;;;;;;;11.90;10.07;;;17.00;99.90;;;;;;4920265;29;20206;-90
2022/09/08 06:54:29;;;;;;;11.80;9.95;;;17.00;99.90;;;;;;4902726;29;20286;-91
2022/09/08 06:57:16;;;;;;;13.48;9.57;;;17.00;99.90;;;;;;4901476;29;20171;-90
2022/09/08 06:59:48;;;;;;;13.45;11.15;;;17.10;99.90;;;;;;4913589;29;20178;-91
2022/09/08 07:02:34;;;;;;;17.38;10.15;;;17.10;99.90;;;;;;4918841;29;20202;-89
2022/09/08 07:05:26;;;;;;;12.48;10.75;;;17.10;99.90;;;;;;4918258;29;20189;-90
2022/09/08 07:08:02;;;;;;;11.48;10.25;;;17.10;99.90;;;;;;4910137;29;20186;-89
2022/09/08 07:10:36;;;;;;;14.13;10.77;;;17.00;99.90;;;;;;4928598;29;20286;-92
2022/09/08 07:13:17;;;;;;;14.50;12.25;;;17.00;99.90;;;;;;4938366;29;20301;-91
2022/09/08 07:16:27;;;;;;;13.23;11.48;;;17.10;99.90;;;;;;4930940;29;20178;-89
2022/09/08 07:19:16;;;;;;;14.20;11.13;;;17.10;99.90;;;;;;4901625;29;20183;-89
2022/09/08 07:21:54;;;;;;;17.58;11.38;;;17.10;99.90;;;;;;4899861;29;20210;-90
2022/09/08 07:24:23;;;;;;;14.10;11.70;;;17.10;99.90;;;;;;4899447;29;20175;-90
2022/09/08 07:26:58;;;;;;;14.70;11.05;;;17.10;99.90;;;;;;4900595;29;20178;-89
2022/09/08 07:29:33;;;;;;;13.88;11.30;;;17.20;99.90;;;;;;4898918;29;20249;-89
2022/09/08 07:32:00;;;;;;;15.50;11.05;;;17.20;99.90;;;;;;4905942;29;20217;-90
2022/09/08 07:34:30;;;;;;;11.65;10.40;;;17.20;99.90;;;;;;4919160;29;20213;-94
2022/09/08 07:37:14;;;;;;;17.65;12.00;;;17.30;99.90;;;;;;4919337;29;20669;-92
2022/09/08 07:39:52;;;;;;;13.45;11.77;;;17.30;99.90;;;;;;4920575;29;20163;-89
2022/09/08 07:42:19;;;;;;;13.32;11.65;;;17.30;99.90;;;;;;4919538;29;20223;-89
2022/09/08 07:44:46;;;;;;;16.48;12.23;;;17.30;99.90;;;;;;4919022;29;20229;-93
2022/09/08 07:47:41;;;;;;;14.25;12.50;;;17.30;99.90;;;;;;4937586;29;20662;-89
2022/09/08 07:50:19;;;;;;;13.25;11.80;;;17.30;99.90;;;;;;4904292;29;20218;-89
2022/09/08 07:53:07;;;;;;;16.05;12.73;;;17.40;99.90;;;;;;4904238;29;20202;-90
2022/09/08 07:55:44;;;;;;;16.88;11.77;;;17.30;99.90;;;;;;4907077;29;20178;-89
2022/09/08 07:58:51;;;;;;;14.90;11.20;;;17.30;99.90;;;;;;4941055;29;20170;-91
2022/09/08 08:01:47;;;;;;;17.67;11.43;;;17.30;99.90;;;;;;4940466;28;20681;-89
2022/09/08 08:04:18;;;;;;;14.43;11.15;;;17.30;99.90;;;;;;4935986;29;20676;-91
2022/09/08 08:06:56;;;;;;;13.63;10.85;;;17.30;99.90;;;;;;4941302;29;20177;-92
2022/09/08 08:09:46;;;;;;;16.35;11.15;;;17.30;99.90;;;;;;4942179;29;20206;-90
2022/09/08 08:12:41;;;;;;;14.18;11.82;;;17.30;99.90;;;;;;4941241;29;20666;-91
2022/09/08 08:15:19;;;;;;;15.00;10.77;;;17.30;99.90;;;;;;4941257;29;20626;-91
2022/09/08 08:18:09;;;;;;;14.45;12.35;;;17.40;99.90;;;;;;4935030;29;20258;-90
2022/09/08 08:20:55;;;;;;;13.65;11.68;;;17.40;99.90;;;;;;4925732;29;20262;-89
2022/09/08 08:23:44;;;;;;;14.75;12.18;;;17.30;99.90;;;;;;4922069;29;20182;-93
2022/09/08 08:26:45;;;;;;;20.30;11.90;;;17.40;99.90;;;;;;4916687;29;20202;-91
2022/09/08 08:29:32;;;;;;;17.80;12.10;;;17.30;99.90;;;;;;4921874;29;20192;-89
2022/09/08 08:32:16;;;;;;;14.70;12.10;;;17.30;99.90;;;;;;4920854;29;20187;-90
2022/09/08 08:34:48;;;;;;;13.23;11.30;;;17.30;99.90;;;;;;4922974;29;20226;-90
2022/09/08 08:37:24;;;;;;;14.43;11.80;;;17.30;99.90;;;;;;4920827;29;20175;-90
2022/09/08 08:39:56;;;;;;;17.33;12.23;;;17.30;99.90;;;;;;4920171;29;20213;-91
2022/09/08 08:42:34;;;;;;;16.58;12.00;;;17.40;99.90;;;;;;4922108;29;20234;-90
2022/09/08 08:45:48;;;;;;;14.23;11.95;;;17.30;99.90;;;;;;4922978;29;20210;-89
2022/09/08 08:48:30;;;;;;;14.07;11.60;;;17.40;99.90;;;;;;4905537;29;20187;-90
2022/09/08 08:51:24;;;;;;;17.40;11.93;;;17.40;99.90;;;;;;4922227;29;20602;-93
2022/09/08 08:54:29;;;;;;;15.70;11.82;;;17.30;99.90;;;;;;4920463;29;20210;-91
2022/09/08 08:57:22;;;;;;;17.40;12.57;;;17.30;99.90;;;;;;4920088;29;20181;-91
2022/09/08 09:00:15;;;;;;;14.50;11.57;;;17.30;99.90;;;;;;4920553;29;20271;-89
2022/09/08 09:03:00;;;;;;;17.50;12.00;;;17.30;99.90;;;;;;4921933;29;20190;-92
2022/09/08 09:06:00;;;;;;;14.80;11.82;;;17.30;99.90;;;;;;4941152;29;20262;-91
2022/09/08 09:09:06;;;;;;;15.02;12.35;;;17.30;99.90;;;;;;4942144;29;20182;-92
2022/09/08 09:11:50;;;;;;;15.82;13.10;;;17.40;99.90;;;;;;4924194;29;20198;-90
2022/09/08 09:14:35;;;;;;;23.75;12.48;;;17.40;99.90;;;;;;4920196;29;20202;-92
2022/09/08 09:17:41;;;;;;;15.10;12.30;;;17.40;99.90;;;;;;4922073;29;20202;-92
2022/09/08 09:20:48;;;;;;;16.75;12.50;;;17.40;99.90;;;;;;4928621;29;20276;-89
2022/09/08 09:23:27;;;;;;;17.23;12.38;;;17.40;99.90;;;;;;4942307;28;20237;-91
2022/09/08 09:26:14;;;;;;;16.20;12.30;;;17.40;99.90;;;;;;4940921;28;20189;-91
2022/09/08 09:29:05;;;;;;;16.83;13.82;;;17.50;99.90;;;;;;4941576;29;20174;-88
2022/09/08 09:32:01;;;;;;;23.77;18.00;;;17.50;99.90;;;;;;4940785;28;20231;-90
2022/09/08 09:34:52;;;;;;;15.60;13.50;;;17.50;99.90;;;;;;4940007;28;20246;-93
2022/09/08 09:37:55;;;;;;;16.95;12.50;;;17.50;99.90;;;;;;4936995;29;20277;-93
2022/09/08 09:40:27;;;;;;;16.98;13.00;;;17.50;99.90;;;;;;4937246;29;20268;-91
2022/09/08 09:43:02;;;;;;;15.70;12.60;;;17.50;99.90;;;;;;4938461;29;20174;-89
2022/09/08 09:45:57;;;;;;;22.33;13.40;;;17.50;99.90;;;;;;4936556;29;20189;-89
2022/09/08 09:48:55;;;;;;;15.52;12.32;;;17.60;99.90;;;;;;4937158;29;20162;-94
2022/09/08 09:51:42;;;;;;;16.85;13.57;;;17.60;99.90;;;;;;4931444;29;20725;-91
2022/09/08 09:54:29;;;;;;;17.02;13.00;;;17.60;99.90;;;;;;4916143;29;20221;-90
2022/09/08 09:57:02;;;;;;;14.90;13.38;;;17.60;99.90;;;;;;4915462;29;20193;-89
2022/09/08 09:59:54;;;;;;;14.35;12.05;;;17.60;99.90;;;;;;4914465;29;20167;-91
2022/09/08 10:02:47;;;;;;;19.85;14.73;;;17.70;99.90;;;;;;4918501;29;20183;-91
2022/09/08 10:05:34;;;;;;;18.33;13.98;;;17.70;99.90;;;;;;4916047;29;20266;-92
2022/09/08 10:08:36;;;;;;;21.50;14.43;;;17.70;99.90;;;;;;4915465;29;20171;-90
2022/09/08 10:11:39;;;;;;;23.25;14.88;;;17.70;99.90;;;;;;4895648;29;20309;-89
2022/09/08 10:14:26;;;;;;;16.38;14.25;;;17.70;99.90;;;;;;4897024;29;20195;-90
2022/09/08 10:17:18;;;;;;;16.98;13.55;;;17.70;99.90;;;;;;4896648;29;20171;-90
2022/09/08 10:19:50;;;;;;;19.88;14.98;;;17.60;99.90;;;;;;4921236;29;20537;-92
2022/09/08 10:22:28;;;;;;;14.80;12.93;;;17.70;99.90;;;;;;4925076;29;20194;-92
2022/09/08 10:25:03;;;;;;;18.08;14.35;;;17.60;99.90;;;;;;4915517;29;20175;-91
2022/09/08 10:28:03;;;;;;;18.45;14.65;;;17.60;99.90;;;;;;4915535;29;20194;-92
2022/09/08 10:31:00;;;;;;;18.23;14.60;;;17.60;99.90;;;;;;4918008;29;20202;-90
2022/09/08 10:33:51;;;;;;;16.52;13.63;;;17.40;99.90;;;;;;4914734;29;20222;-91
2022/09/08 10:36:41;;;;;;;18.67;15.27;;;17.50;99.90;;;;;;4914400;29;20170;-90
2022/09/08 10:39:37;;;;;;;12.98;11.68;;;17.40;99.90;;;;;;4914232;29;20752;-92
2022/09/08 10:42:35;;;;;;;19.42;14.63;;;17.50;99.90;;;;;;4914840;29;20244;-93
2022/09/08 10:45:39;;;;;;;18.35;14.13;;;17.50;99.90;;;;;;4914521;29;20175;-92
2022/09/08 10:48:21;;;;;;;15.95;13.55;;;17.50;99.90;;;;;;4882255;29;20190;-92
2022/09/08 10:51:02;;;;;;;15.10;13.50;;;17.50;99.90;;;;;;4914136;29;20341;-91
2022/09/08 10:53:49;;;;;;;15.50;12.40;;;17.50;99.90;;;;;;4915302;29;20231;-91
2022/09/08 10:56:18;;;;;;;17.75;13.23;;;17.50;99.90;;;;;;4915131;29;20190;-92
2022/09/08 10:59:00;;;;;;;15.07;13.10;;;17.60;99.90;;;;;;4915547;29;20479;-92
2022/09/08 11:01:50;;;;;;;16.13;13.02;;;17.60;99.90;;;;;;4915565;29;20208;-92
2022/09/08 11:04:54;;;;;;;14.45;11.93;;;17.60;99.90;;;;;;4915489;29;20167;-92
2022/09/08 11:07:43;;;;;;;14.95;12.15;;;17.60;99.90;;;;;;4915471;29;20173;-92
2022/09/08 11:10:15;;;;;;;17.88;13.68;;;17.60;99.90;;;;;;4915382;29;20211;-94
2022/09/08 11:13:13;;;;;;;15.38;13.48;;;17.60;99.90;;;;;;4915530;29;20245;-91
2022/09/08 11:15:42;;;;;;;13.90;12.32;;;17.60;99.90;;;;;;4896587;29;20168;-91
2022/09/08 11:18:29;;;;;;;16.02;13.35;;;17.70;99.90;;;;;;4896346;29;20211;-93
2022/09/08 11:21:07;;;;;;;15.55;13.18;;;17.70;99.90;;;;;;4898121;29;20199;-92
2022/09/08 11:23:54;;;;;;;15.32;12.70;;;17.70;99.90;;;;;;4900782;29;20182;-92
2022/09/08 11:26:54;;;;;;;13.20;11.77;;;17.70;99.90;;;;;;4908946;29;20226;-93
2022/09/08 11:29:39;;;;;;;13.57;11.52;;;17.70;99.90;;;;;;4918960;29;20686;-91
2022/09/08 11:32:29;;;;;;;13.82;11.90;;;17.70;99.90;;;;;;4918732;29;20194;-92
2022/09/08 11:35:14;;;;;;;13.07;11.13;;;17.70;99.90;;;;;;4921204;29;20171;-93
2022/09/08 11:38:08;;;;;;;13.20;11.02;;;17.70;99.90;;;;;;4922180;29;20171;-94
2022/09/08 11:40:50;;;;;;;16.58;12.13;;;17.60;99.90;;;;;;4924057;29;20234;-92
2022/09/08 11:43:25;;;;;;;13.05;11.55;;;17.60;99.90;;;;;;4924675;29;20258;-92
2022/09/08 11:46:08;;;;;;;12.82;10.93;;;17.50;99.90;;;;;;4930829;29;20563;-93
2022/09/08 11:48:41;;;;;;;14.32;10.75;;;17.50;99.90;;;;;;4943228;28;20197;-92
2022/09/08 11:51:39;;;;;;;14.55;11.23;;;17.50;99.90;;;;;;4943688;29;20201;-93
2022/09/08 11:54:21;;;;;;;11.55;9.90;;;17.50;99.90;;;;;;4936896;29;20273;-93
2022/09/08 11:56:54;;;;;;;14.50;12.18;;;17.50;99.90;;;;;;4924237;29;20269;-91
2022/09/08 11:59:25;;;;;;;13.20;11.80;;;17.50;99.90;;;;;;4921451;29;20175;-92
2022/09/08 12:02:20;;;;;;;12.85;11.05;;;17.50;99.90;;;;;;4921585;29;20209;-94
2022/09/08 12:05:11;;;;;;;11.85;9.80;;;17.60;99.90;;;;;;4922250;29;20187;-93
2022/09/08 12:08:15;;;;;;;12.57;10.52;;;17.60;99.90;;;;;;4922952;29;20179;-92
2022/09/08 12:11:07;;;;;;;12.38;10.55;;;17.60;99.90;;;;;;4925113;29;20209;-94
2022/09/08 12:14:01;;;;;;;10.60;9.48;;;17.60;99.90;;;;;;4924827;29;20210;-94
2022/09/08 12:16:49;;;;;;;10.48;9.38;;;17.50;99.90;;;;;;4925914;29;20178;-93
2022/09/08 12:19:45;;;;;;;13.18;10.05;;;17.50;99.90;;;;;;4925710;29;20175;-94
2022/09/08 12:22:50;;;;;;;12.95;9.18;;;17.60;99.90;;;;;;4924819;29;20581;-92
2022/09/08 12:25:54;;;;;;;12.90;9.63;;;17.60;99.90;;;;;;4925551;29;20186;-93
2022/09/08 12:28:53;;;;;;;9.85;8.85;;;17.60;99.90;;;;;;4925394;29;20174;-92
2022/09/08 12:31:45;;;;;;;9.60;8.55;;;17.60;99.90;;;;;;4926432;29;20203;-92
2022/09/08 12:34:36;;;;;;;8.95;8.00;;;17.70;99.90;;;;;;4927065;29;20237;-94
2022/09/08 12:37:42;;;;;;;10.75;9.20;;;17.70;99.90;;;;;;4929145;29;20175;-92
2022/09/08 12:40:26;;;;;;;8.57;7.60;;;17.70;99.90;;;;;;4923757;29;20214;-92
2022/09/08 12:43:17;;;;;;;10.90;8.02;;;17.70;99.90;;;;;;4947296;29;20235;-92
2022/09/08 12:46:15;;;;;;;9.55;8.65;;;17.80;99.90;;;;;;4938536;29;20202;-93
2022/09/08 12:49:00;;;;;;;9.40;7.70;;;17.70;99.90;;;;;;4912696;29;20219;-92
2022/09/08 12:51:35;;;;;;;8.98;7.75;;;17.70;99.90;;;;;;4932861;29;20245;-93
2022/09/08 12:54:24;;;;;;;27.42;8.75;;;17.70;99.90;;;;;;4946239;29;20201;-92
2022/09/08 12:57:26;;;;;;;8.27;7.47;;;17.70;99.90;;;;;;4947339;29;20213;-93
2022/09/08 13:00:26;;;;;;;9.43;7.90;;;17.70;99.90;;;;;;4947382;29;20203;-92
2022/09/08 13:03:15;;;;;;;10.23;9.20;;;17.70;99.90;;;;;;4944350;29;20193;-94
2022/09/08 13:06:07;;;;;;;10.32;7.82;;;17.70;99.90;;;;;;4942999;29;20253;-92
2022/09/08 13:09:07;;;;;;;23.00;7.82;;;17.70;99.90;;;;;;4938911;29;20194;-93
2022/09/08 13:11:56;;;;;;;10.57;7.88;;;17.60;99.90;;;;;;4926034;29;20693;-95
2022/09/08 13:15:12;;;;;;;12.10;7.68;;;17.60;99.90;;;;;;4926937;29;20187;-92
2022/09/08 13:18:06;;;;;;;8.75;7.93;;;17.60;99.90;;;;;;4902897;29;20187;-92
2022/09/08 13:20:48;;;;;;;8.23;7.35;;;17.70;99.90;;;;;;4905935;29;20211;-94
2022/09/08 13:23:45;;;;;;;10.32;7.32;;;17.70;99.90;;;;;;4905577;29;20183;-94
2022/09/08 13:26:30;;;;;;;9.40;6.63;;;17.70;99.90;;;;;;4906022;29;20266;-93
2022/09/08 13:29:12;;;;;;;6.50;5.90;;;17.60;99.90;;;;;;4905848;29;20183;-92
2022/09/08 13:32:23;;;;;;;10.55;4.75;;;17.60;99.90;;;;;;4903994;29;20207;-95
2022/09/08 13:35:16;;;;;;;5.25;4.68;;;17.60;99.90;;;;;;4903376;29;20231;-93
2022/09/08 13:38:10;;;;;;;5.15;4.65;;;17.50;99.90;;;;;;4903149;29;20256;-94
2022/09/08 13:40:56;;;;;;;7.18;5.50;;;17.60;99.90;;;;;;4922708;29;20250;-94
2022/09/08 13:43:55;;;;;;;7.18;6.47;;;17.60;99.90;;;;;;4921489;29;20178;-93
2022/09/08 13:46:37;;;;;;;6.68;5.82;;;17.60;99.90;;;;;;4922421;29;20186;-94
2022/09/08 13:49:23;;;;;;;6.22;5.65;;;17.60;99.90;;;;;;4924831;29;20213;-93
2022/09/08 13:52:05;;;;;;;7.95;6.30;;;17.60;99.90;;;;;;4922067;29;20214;-94
2022/09/08 13:54:51;;;;;;;6.22;5.47;;;17.60;99.90;;;;;;4922261;29;20178;-95
2022/09/08 13:57:16;;;;;;;7.53;5.55;;;17.60;99.90;;;;;;4922161;29;20627;-92
2022/09/08 14:00:07;;;;;;;7.82;5.60;;;17.60;99.90;;;;;;4921827;29;20163;-93
2022/09/08 14:02:43;;;;;;;7.43;4.85;;;17.60;99.90;;;;;;4922214;29;20646;-93
2022/09/08 14:05:42;;;;;;;8.77;5.30;;;17.60;99.90;;;;;;4921546;29;20174;-93
2022/09/08 14:08:11;;;;;;;5.30;4.70;;;17.60;99.90;;;;;;4921171;29;20233;-92
2022/09/08 14:10:36;;;;;;;5.32;4.82;;;17.70;99.90;;;;;;4921526;29;20213;-93
2022/09/08 14:13:24;;;;;;;7.75;4.32;;;17.70;99.90;;;;;;4921762;29;20257;-93
2022/09/08 14:16:07;;;;;;;5.10;4.50;;;17.70;99.90;;;;;;4914462;29;20190;-94
2022/09/08 14:18:53;;;;;;;5.88;4.38;;;17.70;99.90;;;;;;4920951;29;20201;-92
2022/09/08 14:21:47;;;;;;;5.53;3.97;;;17.70;99.90;;;;;;4920927;29;20207;-93
2022/09/08 14:24:45;;;;;;;5.57;4.82;;;17.70;99.90;;;;;;4920278;29;20714;-92
2022/09/08 14:27:35;;;;;;;5.38;4.55;;;17.80;99.90;;;;;;4920297;29;20183;-93
2022/09/08 14:30:13;;;;;;;4.90;4.22;;;17.80;99.90;;;;;;4918255;29;20242;-94
2022/09/08 14:32:52;;;;;;;4.72;3.72;;;17.90;99.90;;;;;;4918538;29;20206;-93
2022/09/08 14:35:33;;;;;;;3.80;3.42;;;17.90;99.90;;;;;;4919687;29;20702;-95
2022/09/08 14:38:16;;;;;;;3.13;2.83;;;17.80;99.90;;;;;;4919789;29;20496;-92
2022/09/08 14:41:09;;;;;;;7.82;3.22;;;17.80;99.90;;;;;;4918703;29;20226;-93
2022/09/08 14:43:47;;;;;;;5.10;2.80;;;17.80;99.90;;;;;;4917595;29;20277;-95
2022/09/08 14:46:28;;;;;;;3.63;3.10;;;17.80;99.90;;;;;;4920893;29;20270;-91
2022/09/08 14:49:07;;;;;;;3.47;3.17;;;17.70;99.90;;;;;;4918848;29;20209;-91
2022/09/08 14:51:49;;;;;;;3.50;3.10;;;17.70;99.90;;;;;;4917616;29;20230;-91
2022/09/08 14:54:43;;;;;;;3.08;2.75;;;17.70;99.90;;;;;;4919872;29;20202;-94
2022/09/08 14:57:31;;;;;;;5.00;3.05;;;17.70;99.90;;;;;;4925639;29;20179;-93
2022/09/08 15:00:22;;;;;;;5.15;3.05;;;17.60;99.90;;;;;;4925860;29;20266;-94
2022/09/08 15:03:00;;;;;;;3.30;3.00;;;17.60;99.90;;;;;;4925733;29;20202;-93
2022/09/08 15:05:36;;;;;;;3.30;3.00;;;17.60;99.90;;;;;;4925802;29;20197;-93
2022/09/08 15:08:19;;;;;;;3.38;3.08;;;17.60;99.90;;;;;;4926724;29;20180;-94
2022/09/08 15:11:10;;;;;;;3.80;3.13;;;17.50;99.90;;;;;;4929770;29;20201;-94
2022/09/08 15:13:57;;;;;;;3.70;3.08;;;17.50;99.90;;;;;;4945712;29;20312;-93
2022/09/08 15:16:37;;;;;;;3.75;3.40;;;17.50;99.90;;;;;;4934287;29;20742;-93
2022/09/08 15:19:19;;;;;;;4.68;3.30;;;17.50;99.90;;;;;;4926564;29;20172;-94
2022/09/08 15:21:50;;;;;;;5.07;3.00;;;17.50;99.90;;;;;;4926079;29;20249;-94
2022/09/08 15:24:51;;;;;;;5.63;3.47;;;17.50;99.90;;;;;;4933757;29;20189;-91
2022/09/08 15:27:30;;;;;;;3.33;2.80;;;17.50;99.90;;;;;;4946057;29;20550;-92
2022/09/08 15:30:28;;;;;;;3.30;2.85;;;17.50;99.90;;;;;;4944899;29;20201;-91
2022/09/08 15:33:14;;;;;;;3.55;2.63;;;17.50;99.90;;;;;;4946744;29;20216;-93
2022/09/08 15:35:59;;;;;;;3.50;2.38;;;17.50;99.90;;;;;;4944580;29;20201;-94
2022/09/08 15:38:39;;;;;;;3.35;2.50;;;17.50;99.90;;;;;;4944968;29;20176;-93
2022/09/08 15:41:12;;;;;;;2.80;2.20;;;17.50;99.90;;;;;;4930626;29;20233;-93
2022/09/08 15:44:10;;;;;;;3.10;2.80;;;17.50;99.90;;;;;;4926541;29;20213;-92
2022/09/08 15:46:54;;;;;;;2.70;2.20;;;17.50;99.90;;;;;;4927146;29;20186;-94
2022/09/08 15:49:46;;;;;;;2.58;2.30;;;17.50;99.90;;;;;;4925423;29;20639;-94
2022/09/08 15:52:32;;;;;;;4.20;2.85;;;17.40;99.90;;;;;;4930177;29;20197;-92
2022/09/08 15:55:18;;;;;;;4.50;2.70;;;17.40;99.90;;;;;;4945463;29;20177;-93
2022/09/08 15:57:57;;;;;;;2.65;2.45;;;17.40;99.90;;;;;;4937504;29;20182;-94
2022/09/08 16:00:23;;;;;;;5.00;3.00;;;17.40;99.90;;;;;;4926073;29;20681;-94
2022/09/08 16:03:02;;;;;;;2.67;2.30;;;17.30;99.90;;;;;;4927200;29;20186;-92
2022/09/08 16:05:44;;;;;;;2.97;2.65;;;17.30;99.90;;;;;;4943637;29;20193;-93
2022/09/08 16:08:33;;;;;;;4.55;2.63;;;17.30;99.90;;;;;;4941179;29;20273;-93
2022/09/08 16:11:10;;;;;;;2.60;2.40;;;17.30;99.90;;;;;;4941681;29;20237;-92
2022/09/08 16:14:22;;;;;;;4.03;3.40;;;17.40;99.90;;;;;;4941125;29;20237;-92
2022/09/08 16:16:53;;;;;;;7.05;3.08;;;17.40;99.90;;;;;;4940732;29;20178;-92
2022/09/08 16:19:28;;;;;;;3.25;2.95;;;17.50;99.90;;;;;;4939613;29;20229;-93
2022/09/08 16:22:01;;;;;;;3.85;3.45;;;17.50;99.90;;;;;;4939449;29;20261;-92
2022/09/08 16:24:49;;;;;;;5.07;3.13;;;17.60;99.90;;;;;;4939822;29;20189;-92
2022/09/08 16:27:21;;;;;;;3.70;3.40;;;17.70;99.90;;;;;;4939084;29;20198;-93
2022/09/08 16:30:16;;;;;;;3.50;3.20;;;17.70;99.90;;;;;;4938113;29;20581;-94
2022/09/08 16:32:47;;;;;;;5.72;3.38;;;17.80;99.90;;;;;;4937139;29;20206;-93
2022/09/08 16:35:28;;;;;;;5.38;3.13;;;17.80;99.90;;;;;;4938093;29;20174;-92
2022/09/08 16:37:55;;;;;;;3.40;3.00;;;17.80;99.90;;;;;;4937447;29;20186;-96
2022/09/08 16:40:24;;;;;;;3.28;2.97;;;17.80;99.90;;;;;;4928356;29;20206;-91
2022/09/08 16:42:58;;;;;;;4.68;3.00;;;17.80;99.90;;;;;;4933447;29;20246;-96
2022/09/08 16:45:26;;;;;;;3.53;3.17;;;17.90;99.90;;;;;;4932856;28;20186;-91
2022/09/08 16:48:05;;;;;;;3.33;3.03;;;17.80;99.90;;;;;;4916859;29;20190;-91
2022/09/08 16:50:40;;;;;;;3.58;3.28;;;17.80;99.90;;;;;;4918444;29;20210;-95
2022/09/08 16:53:43;;;;;;;5.43;3.33;;;17.80;99.90;;;;;;4916110;29;20198;-92
2022/09/08 16:56:42;;;;;;;3.25;2.60;;;17.80;99.90;;;;;;4918175;29;20174;-91
2022/09/08 16:59:17;;;;;;;4.65;2.70;;;17.70;99.90;;;;;;4917723;29;20167;-93
2022/09/08 17:02:20;;;;;;;5.05;3.00;;;17.70;99.90;;;;;;4917794;29;20218;-93
2022/09/08 17:05:19;;;;;;;3.30;3.00;;;17.60;99.90;;;;;;4917645;29;20186;-92
2022/09/08 17:08:14;;;;;;;2.92;2.72;;;17.50;99.90;;;;;;4901509;29;20199;-91
2022/09/08 17:10:59;;;;;;;4.47;2.90;;;17.40;99.90;;;;;;4917629;29;20266;-92
2022/09/08 17:13:29;;;;;;;3.33;3.03;;;17.40;99.90;;;;;;4917342;29;20331;-93
2022/09/08 17:16:13;;;;;;;4.03;2.90;;;17.40;99.90;;;;;;4917473;29;20185;-94
2022/09/08 17:19:10;;;;;;;3.20;2.90;;;17.40;99.90;;;;;;4923816;29;20185;-93
2022/09/08 17:22:13;;;;;;;3.97;3.05;;;17.40;99.90;;;;;;4928156;29;20221;-93
2022/09/08 17:25:21;;;;;;;3.63;3.30;;;17.30;99.90;;;;;;4916098;29;20198;-92
2022/09/08 17:28:17;;;;;;;3.20;2.70;;;17.30;99.90;;;;;;4917631;29;20238;-94